sensor_id;sensor_type;location;lat;lon;timestamp;P1;durP1;ratioP1;P2;durP2;ratioP2
21337;SDS011;72379;50.880;4.350;2024-01-30T00:00:11;15.03;;;7.17;;
21337;SDS011;72379;50.880;4.350;2024-01-30T00:02:36;12.10;;;6.40;;
21337;SDS011;72379;50.880;4.350;2024-01-30T00:05:02;16.83;;;6.63;;
21337;SDS011;72379;50.880;4.350;2024-01-30T00:07:29;10.93;;;5.93;;
21337;SDS011;72379;50.880;4.350;2024-01-30T00:09:55;10.87;;;6.97;;
21337;SDS011;72379;50.880;4.350;2024-01-30T00:12:21;14.07;;;6.97;;
21337;SDS011;72379;50.880;4.350;2024-01-30T00:14:47;13.20;;;6.53;;
21337;SDS011;72379;50.880;4.350;2024-01-30T00:17:13;11.40;;;7.03;;
21337;SDS011;72379;50.880;4.350;2024-01-30T00:19:39;19.70;;;6.53;;
21337;SDS011;72379;50.880;4.350;2024-01-30T00:22:05;12.17;;;7.30;;
21337;SDS011;72379;50.880;4.350;2024-01-30T00:24:32;11.37;;;6.57;;
21337;SDS011;72379;50.880;4.350;2024-01-30T00:26:58;12.87;;;7.20;;
21337;SDS011;72379;50.880;4.350;2024-01-30T00:29:23;9.93;;;6.87;;
21337;SDS011;72379;50.880;4.350;2024-01-30T00:31:54;11.17;;;6.60;;
21337;SDS011;72379;50.880;4.350;2024-01-30T00:34:20;10.73;;;6.40;;
21337;SDS011;72379;50.880;4.350;2024-01-30T00:36:46;12.77;;;6.47;;
21337;SDS011;72379;50.880;4.350;2024-01-30T00:39:12;13.40;;;6.33;;
21337;SDS011;72379;50.880;4.350;2024-01-30T00:41:37;12.63;;;6.00;;
21337;SDS011;72379;50.880;4.350;2024-01-30T00:44:03;12.10;;;5.73;;
21337;SDS011;72379;50.880;4.350;2024-01-30T00:46:29;12.57;;;5.60;;
21337;SDS011;72379;50.880;4.350;2024-01-30T00:48:55;10.47;;;5.93;;
21337;SDS011;72379;50.880;4.350;2024-01-30T00:51:21;11.00;;;6.77;;
21337;SDS011;72379;50.880;4.350;2024-01-30T00:53:47;11.83;;;6.30;;
21337;SDS011;72379;50.880;4.350;2024-01-30T00:56:13;17.70;;;7.03;;
21337;SDS011;72379;50.880;4.350;2024-01-30T00:58:43;12.80;;;6.47;;
21337;SDS011;72379;50.880;4.350;2024-01-30T01:01:08;11.27;;;6.53;;
21337;SDS011;72379;50.880;4.350;2024-01-30T01:03:34;11.90;;;6.27;;
21337;SDS011;72379;50.880;4.350;2024-01-30T01:06:00;10.93;;;6.10;;
21337;SDS011;72379;50.880;4.350;2024-01-30T01:08:26;13.83;;;6.40;;
21337;SDS011;72379;50.880;4.350;2024-01-30T01:10:52;12.43;;;6.50;;
21337;SDS011;72379;50.880;4.350;2024-01-30T01:13:17;10.33;;;6.17;;
21337;SDS011;72379;50.880;4.350;2024-01-30T01:15:43;11.20;;;6.07;;
21337;SDS011;72379;50.880;4.350;2024-01-30T01:18:09;10.47;;;5.90;;
21337;SDS011;72379;50.880;4.350;2024-01-30T01:20:35;13.03;;;6.23;;
21337;SDS011;72379;50.880;4.350;2024-01-30T01:23:02;11.77;;;6.10;;
21337;SDS011;72379;50.880;4.350;2024-01-30T01:25:28;9.90;;;6.07;;
21337;SDS011;72379;50.880;4.350;2024-01-30T01:27:54;12.13;;;5.73;;
21337;SDS011;72379;50.880;4.350;2024-01-30T01:30:20;15.77;;;5.80;;
21337;SDS011;72379;50.880;4.350;2024-01-30T01:32:50;10.23;;;5.63;;
21337;SDS011;72379;50.880;4.350;2024-01-30T01:35:23;9.20;;;5.93;;
21337;SDS011;72379;50.880;4.350;2024-01-30T01:37:50;9.83;;;5.77;;
21337;SDS011;72379;50.880;4.350;2024-01-30T01:40:25;9.33;;;5.67;;
21337;SDS011;72379;50.880;4.350;2024-01-30T01:42:52;11.97;;;5.70;;
21337;SDS011;72379;50.880;4.350;2024-01-30T01:45:19;10.90;;;5.93;;
21337;SDS011;72379;50.880;4.350;2024-01-30T01:47:45;10.40;;;6.30;;
21337;SDS011;72379;50.880;4.350;2024-01-30T01:50:16;9.83;;;5.27;;
21337;SDS011;72379;50.880;4.350;2024-01-30T01:52:46;10.83;;;5.57;;
21337;SDS011;72379;50.880;4.350;2024-01-30T01:55:13;11.50;;;6.10;;
21337;SDS011;72379;50.880;4.350;2024-01-30T01:57:41;10.43;;;6.30;;
21337;SDS011;72379;50.880;4.350;2024-01-30T02:00:07;11.23;;;6.07;;
21337;SDS011;72379;50.880;4.350;2024-01-30T02:02:35;12.13;;;6.10;;
21337;SDS011;72379;50.880;4.350;2024-01-30T02:05:02;12.23;;;5.63;;
21337;SDS011;72379;50.880;4.350;2024-01-30T02:07:29;11.87;;;6.17;;
21337;SDS011;72379;50.880;4.350;2024-01-30T02:09:55;10.90;;;5.90;;
21337;SDS011;72379;50.880;4.350;2024-01-30T02:12:21;11.80;;;5.87;;
21337;SDS011;72379;50.880;4.350;2024-01-30T02:14:47;10.53;;;5.73;;
21337;SDS011;72379;50.880;4.350;2024-01-30T02:17:14;12.07;;;6.07;;
21337;SDS011;72379;50.880;4.350;2024-01-30T02:19:40;9.37;;;5.57;;
21337;SDS011;72379;50.880;4.350;2024-01-30T02:22:06;12.20;;;6.20;;
21337;SDS011;72379;50.880;4.350;2024-01-30T02:24:33;8.83;;;5.27;;
21337;SDS011;72379;50.880;4.350;2024-01-30T02:26:58;10.73;;;5.70;;
21337;SDS011;72379;50.880;4.350;2024-01-30T02:29:25;8.77;;;5.50;;
21337;SDS011;72379;50.880;4.350;2024-01-30T02:31:50;11.03;;;5.63;;
21337;SDS011;72379;50.880;4.350;2024-01-30T02:34:18;12.53;;;6.23;;
21337;SDS011;72379;50.880;4.350;2024-01-30T02:36:44;11.90;;;6.00;;
21337;SDS011;72379;50.880;4.350;2024-01-30T02:39:10;16.03;;;6.23;;
21337;SDS011;72379;50.880;4.350;2024-01-30T02:41:36;11.83;;;5.97;;
21337;SDS011;72379;50.880;4.350;2024-01-30T02:44:02;11.60;;;6.10;;
21337;SDS011;72379;50.880;4.350;2024-01-30T02:46:28;9.47;;;5.40;;
21337;SDS011;72379;50.880;4.350;2024-01-30T02:48:54;13.03;;;5.70;;
21337;SDS011;72379;50.880;4.350;2024-01-30T02:51:20;10.20;;;5.77;;
21337;SDS011;72379;50.880;4.350;2024-01-30T02:53:46;9.90;;;5.80;;
21337;SDS011;72379;50.880;4.350;2024-01-30T02:56:12;9.77;;;5.83;;
21337;SDS011;72379;50.880;4.350;2024-01-30T02:58:39;8.40;;;5.40;;
21337;SDS011;72379;50.880;4.350;2024-01-30T03:01:05;11.90;;;5.77;;
21337;SDS011;72379;50.880;4.350;2024-01-30T03:03:31;13.03;;;6.17;;
21337;SDS011;72379;50.880;4.350;2024-01-30T03:05:57;10.63;;;5.63;;
21337;SDS011;72379;50.880;4.350;2024-01-30T03:08:23;11.87;;;5.10;;
21337;SDS011;72379;50.880;4.350;2024-01-30T03:10:49;11.67;;;6.30;;
21337;SDS011;72379;50.880;4.350;2024-01-30T03:13:16;11.17;;;5.97;;
21337;SDS011;72379;50.880;4.350;2024-01-30T03:15:42;12.83;;;6.20;;
21337;SDS011;72379;50.880;4.350;2024-01-30T03:18:07;10.77;;;5.83;;
21337;SDS011;72379;50.880;4.350;2024-01-30T03:20:33;11.47;;;6.40;;
21337;SDS011;72379;50.880;4.350;2024-01-30T03:22:59;13.87;;;6.43;;
21337;SDS011;72379;50.880;4.350;2024-01-30T03:25:26;11.00;;;5.83;;
21337;SDS011;72379;50.880;4.350;2024-01-30T03:27:51;9.90;;;5.53;;
21337;SDS011;72379;50.880;4.350;2024-01-30T03:30:17;12.53;;;5.73;;
21337;SDS011;72379;50.880;4.350;2024-01-30T03:32:43;12.10;;;5.57;;
21337;SDS011;72379;50.880;4.350;2024-01-30T03:35:09;9.97;;;5.47;;
21337;SDS011;72379;50.880;4.350;2024-01-30T03:37:35;13.50;;;6.43;;
21337;SDS011;72379;50.880;4.350;2024-01-30T03:40:02;11.80;;;5.57;;
21337;SDS011;72379;50.880;4.350;2024-01-30T03:42:28;12.77;;;5.13;;
21337;SDS011;72379;50.880;4.350;2024-01-30T03:44:54;12.33;;;5.73;;
21337;SDS011;72379;50.880;4.350;2024-01-30T03:47:20;13.40;;;6.03;;
21337;SDS011;72379;50.880;4.350;2024-01-30T03:49:46;11.93;;;5.53;;
21337;SDS011;72379;50.880;4.350;2024-01-30T03:52:12;13.40;;;6.10;;
21337;SDS011;72379;50.880;4.350;2024-01-30T03:54:38;12.63;;;5.90;;
21337;SDS011;72379;50.880;4.350;2024-01-30T03:57:04;12.07;;;6.27;;
21337;SDS011;72379;50.880;4.350;2024-01-30T03:59:30;12.13;;;6.33;;
21337;SDS011;72379;50.880;4.350;2024-01-30T04:01:56;11.97;;;6.23;;
21337;SDS011;72379;50.880;4.350;2024-01-30T04:04:22;12.30;;;6.10;;
21337;SDS011;72379;50.880;4.350;2024-01-30T04:06:48;13.40;;;6.53;;
21337;SDS011;72379;50.880;4.350;2024-01-30T04:09:14;14.33;;;5.83;;
21337;SDS011;72379;50.880;4.350;2024-01-30T04:11:40;13.13;;;6.20;;
21337;SDS011;72379;50.880;4.350;2024-01-30T04:14:07;12.57;;;6.23;;
21337;SDS011;72379;50.880;4.350;2024-01-30T04:16:33;11.13;;;6.10;;
21337;SDS011;72379;50.880;4.350;2024-01-30T04:18:59;12.57;;;6.47;;
21337;SDS011;72379;50.880;4.350;2024-01-30T04:21:25;16.30;;;6.80;;
21337;SDS011;72379;50.880;4.350;2024-01-30T04:23:51;14.97;;;6.83;;
21337;SDS011;72379;50.880;4.350;2024-01-30T04:26:17;12.43;;;6.63;;
21337;SDS011;72379;50.880;4.350;2024-01-30T04:28:46;14.50;;;6.70;;
21337;SDS011;72379;50.880;4.350;2024-01-30T04:31:11;10.40;;;6.03;;
21337;SDS011;72379;50.880;4.350;2024-01-30T04:33:37;11.90;;;6.30;;
21337;SDS011;72379;50.880;4.350;2024-01-30T04:36:03;14.53;;;6.37;;
21337;SDS011;72379;50.880;4.350;2024-01-30T04:38:30;10.17;;;5.40;;
21337;SDS011;72379;50.880;4.350;2024-01-30T04:40:56;20.60;;;6.13;;
21337;SDS011;72379;50.880;4.350;2024-01-30T04:43:22;13.20;;;6.47;;
21337;SDS011;72379;50.880;4.350;2024-01-30T04:45:49;12.43;;;6.50;;
21337;SDS011;72379;50.880;4.350;2024-01-30T04:48:15;11.17;;;6.37;;
21337;SDS011;72379;50.880;4.350;2024-01-30T04:50:40;14.20;;;6.73;;
21337;SDS011;72379;50.880;4.350;2024-01-30T04:53:06;14.80;;;6.83;;
21337;SDS011;72379;50.880;4.350;2024-01-30T04:55:34;12.43;;;6.43;;
21337;SDS011;72379;50.880;4.350;2024-01-30T04:58:01;12.60;;;6.53;;
21337;SDS011;72379;50.880;4.350;2024-01-30T05:00:26;11.40;;;6.47;;
21337;SDS011;72379;50.880;4.350;2024-01-30T05:02:54;16.73;;;6.83;;
21337;SDS011;72379;50.880;4.350;2024-01-30T05:05:20;10.10;;;6.43;;
21337;SDS011;72379;50.880;4.350;2024-01-30T05:07:46;17.80;;;6.77;;
21337;SDS011;72379;50.880;4.350;2024-01-30T05:10:13;11.50;;;6.27;;
21337;SDS011;72379;50.880;4.350;2024-01-30T05:12:39;11.50;;;5.97;;
21337;SDS011;72379;50.880;4.350;2024-01-30T05:15:05;12.63;;;6.67;;
21337;SDS011;72379;50.880;4.350;2024-01-30T05:17:31;13.90;;;6.70;;
21337;SDS011;72379;50.880;4.350;2024-01-30T05:19:58;17.03;;;6.90;;
21337;SDS011;72379;50.880;4.350;2024-01-30T05:22:23;16.13;;;6.83;;
21337;SDS011;72379;50.880;4.350;2024-01-30T05:24:49;14.70;;;7.63;;
21337;SDS011;72379;50.880;4.350;2024-01-30T05:27:15;13.03;;;6.93;;
21337;SDS011;72379;50.880;4.350;2024-01-30T05:29:41;10.37;;;6.33;;
21337;SDS011;72379;50.880;4.350;2024-01-30T05:32:06;13.67;;;7.00;;
21337;SDS011;72379;50.880;4.350;2024-01-30T05:34:33;12.73;;;6.77;;
21337;SDS011;72379;50.880;4.350;2024-01-30T05:36:59;16.23;;;6.80;;
21337;SDS011;72379;50.880;4.350;2024-01-30T05:39:25;13.47;;;7.00;;
21337;SDS011;72379;50.880;4.350;2024-01-30T05:41:51;13.80;;;6.97;;
21337;SDS011;72379;50.880;4.350;2024-01-30T05:44:16;12.13;;;6.97;;
21337;SDS011;72379;50.880;4.350;2024-01-30T05:46:44;11.77;;;6.63;;
21337;SDS011;72379;50.880;4.350;2024-01-30T05:49:10;14.90;;;7.10;;
21337;SDS011;72379;50.880;4.350;2024-01-30T05:51:36;12.37;;;7.57;;
21337;SDS011;72379;50.880;4.350;2024-01-30T05:54:02;13.27;;;7.13;;
21337;SDS011;72379;50.880;4.350;2024-01-30T05:56:29;11.37;;;6.63;;
21337;SDS011;72379;50.880;4.350;2024-01-30T05:58:55;9.87;;;6.70;;
21337;SDS011;72379;50.880;4.350;2024-01-30T06:01:22;12.80;;;7.03;;
21337;SDS011;72379;50.880;4.350;2024-01-30T06:03:47;19.10;;;7.83;;
21337;SDS011;72379;50.880;4.350;2024-01-30T06:06:14;11.83;;;6.97;;
21337;SDS011;72379;50.880;4.350;2024-01-30T06:08:39;10.97;;;6.80;;
21337;SDS011;72379;50.880;4.350;2024-01-30T06:11:05;12.80;;;6.53;;
21337;SDS011;72379;50.880;4.350;2024-01-30T06:13:34;11.30;;;6.33;;
21337;SDS011;72379;50.880;4.350;2024-01-30T06:16:00;10.80;;;6.13;;
21337;SDS011;72379;50.880;4.350;2024-01-30T06:18:26;16.10;;;7.20;;
21337;SDS011;72379;50.880;4.350;2024-01-30T06:20:54;13.83;;;6.50;;
21337;SDS011;72379;50.880;4.350;2024-01-30T06:23:20;14.07;;;7.20;;
21337;SDS011;72379;50.880;4.350;2024-01-30T06:25:46;13.20;;;6.93;;
21337;SDS011;72379;50.880;4.350;2024-01-30T06:28:12;12.97;;;6.53;;
21337;SDS011;72379;50.880;4.350;2024-01-30T06:30:38;14.03;;;6.90;;
21337;SDS011;72379;50.880;4.350;2024-01-30T06:33:04;14.10;;;6.73;;
21337;SDS011;72379;50.880;4.350;2024-01-30T06:35:29;14.13;;;6.77;;
21337;SDS011;72379;50.880;4.350;2024-01-30T06:37:55;13.00;;;7.70;;
21337;SDS011;72379;50.880;4.350;2024-01-30T06:40:22;10.43;;;6.33;;
21337;SDS011;72379;50.880;4.350;2024-01-30T06:45:16;12.03;;;6.87;;
21337;SDS011;72379;50.880;4.350;2024-01-30T06:47:42;14.00;;;6.67;;
21337;SDS011;72379;50.880;4.350;2024-01-30T06:50:08;12.80;;;6.73;;
21337;SDS011;72379;50.880;4.350;2024-01-30T06:52:34;11.10;;;6.50;;
21337;SDS011;72379;50.880;4.350;2024-01-30T06:55:00;13.03;;;7.30;;
21337;SDS011;72379;50.880;4.350;2024-01-30T06:57:26;16.60;;;7.20;;
21337;SDS011;72379;50.880;4.350;2024-01-30T06:59:53;15.70;;;7.43;;
21337;SDS011;72379;50.880;4.350;2024-01-30T07:02:19;15.57;;;6.67;;
21337;SDS011;72379;50.880;4.350;2024-01-30T07:04:44;12.93;;;7.07;;
21337;SDS011;72379;50.880;4.350;2024-01-30T07:07:10;11.47;;;6.23;;
21337;SDS011;72379;50.880;4.350;2024-01-30T07:09:38;13.60;;;7.13;;
21337;SDS011;72379;50.880;4.350;2024-01-30T07:12:04;12.17;;;6.60;;
21337;SDS011;72379;50.880;4.350;2024-01-30T07:14:31;12.07;;;6.80;;
21337;SDS011;72379;50.880;4.350;2024-01-30T07:16:56;13.50;;;7.50;;
21337;SDS011;72379;50.880;4.350;2024-01-30T07:19:22;12.03;;;6.40;;
21337;SDS011;72379;50.880;4.350;2024-01-30T07:21:48;16.87;;;7.43;;
21337;SDS011;72379;50.880;4.350;2024-01-30T07:24:14;12.50;;;7.10;;
21337;SDS011;72379;50.880;4.350;2024-01-30T07:26:40;13.57;;;6.73;;
21337;SDS011;72379;50.880;4.350;2024-01-30T07:29:06;15.03;;;6.97;;
21337;SDS011;72379;50.880;4.350;2024-01-30T07:31:32;13.83;;;6.87;;
21337;SDS011;72379;50.880;4.350;2024-01-30T07:33:58;19.37;;;7.37;;
21337;SDS011;72379;50.880;4.350;2024-01-30T07:36:24;17.97;;;7.10;;
21337;SDS011;72379;50.880;4.350;2024-01-30T07:38:51;14.80;;;7.00;;
21337;SDS011;72379;50.880;4.350;2024-01-30T07:41:19;13.93;;;7.40;;
21337;SDS011;72379;50.880;4.350;2024-01-30T07:43:45;14.03;;;6.90;;
21337;SDS011;72379;50.880;4.350;2024-01-30T07:46:10;16.47;;;7.40;;
21337;SDS011;72379;50.880;4.350;2024-01-30T07:48:38;18.07;;;7.83;;
21337;SDS011;72379;50.880;4.350;2024-01-30T07:51:04;15.30;;;7.33;;
21337;SDS011;72379;50.880;4.350;2024-01-30T07:53:30;20.60;;;7.50;;
21337;SDS011;72379;50.880;4.350;2024-01-30T07:55:56;17.60;;;7.67;;
21337;SDS011;72379;50.880;4.350;2024-01-30T07:58:21;18.87;;;6.97;;
21337;SDS011;72379;50.880;4.350;2024-01-30T08:00:48;17.73;;;7.67;;
21337;SDS011;72379;50.880;4.350;2024-01-30T08:03:16;17.63;;;8.03;;
21337;SDS011;72379;50.880;4.350;2024-01-30T08:05:43;16.47;;;8.80;;
21337;SDS011;72379;50.880;4.350;2024-01-30T08:08:08;20.37;;;7.63;;
21337;SDS011;72379;50.880;4.350;2024-01-30T08:10:35;16.00;;;7.73;;
21337;SDS011;72379;50.880;4.350;2024-01-30T08:13:01;18.33;;;7.63;;
21337;SDS011;72379;50.880;4.350;2024-01-30T08:15:27;18.50;;;7.93;;
21337;SDS011;72379;50.880;4.350;2024-01-30T08:17:54;20.80;;;7.53;;
21337;SDS011;72379;50.880;4.350;2024-01-30T08:20:23;15.83;;;7.90;;
21337;SDS011;72379;50.880;4.350;2024-01-30T08:22:49;18.27;;;8.70;;
21337;SDS011;72379;50.880;4.350;2024-01-30T08:25:15;15.73;;;7.93;;
21337;SDS011;72379;50.880;4.350;2024-01-30T08:27:41;20.90;;;8.00;;
21337;SDS011;72379;50.880;4.350;2024-01-30T08:30:07;19.83;;;7.90;;
21337;SDS011;72379;50.880;4.350;2024-01-30T08:32:33;16.73;;;8.23;;
21337;SDS011;72379;50.880;4.350;2024-01-30T08:34:59;19.40;;;7.93;;
21337;SDS011;72379;50.880;4.350;2024-01-30T08:37:29;22.37;;;8.67;;
21337;SDS011;72379;50.880;4.350;2024-01-30T08:39:55;18.30;;;8.97;;
21337;SDS011;72379;50.880;4.350;2024-01-30T08:42:21;22.93;;;8.93;;
21337;SDS011;72379;50.880;4.350;2024-01-30T08:44:48;16.77;;;7.60;;
21337;SDS011;72379;50.880;4.350;2024-01-30T08:47:16;17.67;;;8.50;;
21337;SDS011;72379;50.880;4.350;2024-01-30T08:49:43;24.17;;;8.50;;
21337;SDS011;72379;50.880;4.350;2024-01-30T08:52:10;25.77;;;8.53;;
21337;SDS011;72379;50.880;4.350;2024-01-30T08:54:36;21.67;;;8.70;;
21337;SDS011;72379;50.880;4.350;2024-01-30T08:57:02;19.83;;;8.20;;
21337;SDS011;72379;50.880;4.350;2024-01-30T08:59:29;19.87;;;7.77;;
21337;SDS011;72379;50.880;4.350;2024-01-30T09:01:55;18.53;;;8.03;;
21337;SDS011;72379;50.880;4.350;2024-01-30T09:04:23;16.83;;;8.10;;
21337;SDS011;72379;50.880;4.350;2024-01-30T09:06:49;16.07;;;6.80;;
21337;SDS011;72379;50.880;4.350;2024-01-30T09:09:15;15.77;;;7.67;;
21337;SDS011;72379;50.880;4.350;2024-01-30T09:11:41;18.00;;;7.70;;
21337;SDS011;72379;50.880;4.350;2024-01-30T09:14:06;15.90;;;8.10;;
21337;SDS011;72379;50.880;4.350;2024-01-30T09:16:32;18.80;;;8.30;;
21337;SDS011;72379;50.880;4.350;2024-01-30T09:18:58;15.80;;;8.03;;
21337;SDS011;72379;50.880;4.350;2024-01-30T09:21:24;21.63;;;8.23;;
21337;SDS011;72379;50.880;4.350;2024-01-30T09:23:50;17.00;;;6.70;;
21337;SDS011;72379;50.880;4.350;2024-01-30T09:26:17;17.97;;;8.27;;
21337;SDS011;72379;50.880;4.350;2024-01-30T09:28:43;19.60;;;7.87;;
21337;SDS011;72379;50.880;4.350;2024-01-30T09:31:12;23.33;;;8.40;;
21337;SDS011;72379;50.880;4.350;2024-01-30T09:33:38;20.07;;;8.67;;
21337;SDS011;72379;50.880;4.350;2024-01-30T09:36:04;16.53;;;8.30;;
21337;SDS011;72379;50.880;4.350;2024-01-30T09:38:30;11.70;;;6.07;;
21337;SDS011;72379;50.880;4.350;2024-01-30T09:40:56;14.90;;;8.10;;
21337;SDS011;72379;50.880;4.350;2024-01-30T09:43:29;21.20;;;8.87;;
21337;SDS011;72379;50.880;4.350;2024-01-30T09:45:58;14.17;;;7.43;;
21337;SDS011;72379;50.880;4.350;2024-01-30T09:48:27;20.53;;;8.37;;
21337;SDS011;72379;50.880;4.350;2024-01-30T09:50:55;17.27;;;8.53;;
21337;SDS011;72379;50.880;4.350;2024-01-30T09:53:23;18.87;;;9.30;;
21337;SDS011;72379;50.880;4.350;2024-01-30T09:55:49;19.37;;;7.90;;
21337;SDS011;72379;50.880;4.350;2024-01-30T09:58:16;20.57;;;9.00;;
21337;SDS011;72379;50.880;4.350;2024-01-30T10:00:42;21.60;;;8.53;;
21337;SDS011;72379;50.880;4.350;2024-01-30T10:03:08;21.43;;;8.10;;
21337;SDS011;72379;50.880;4.350;2024-01-30T10:05:35;21.53;;;8.60;;
21337;SDS011;72379;50.880;4.350;2024-01-30T10:08:07;18.23;;;9.67;;
21337;SDS011;72379;50.880;4.350;2024-01-30T10:10:33;17.07;;;9.57;;
21337;SDS011;72379;50.880;4.350;2024-01-30T10:13:00;20.87;;;9.80;;
21337;SDS011;72379;50.880;4.350;2024-01-30T10:15:26;21.27;;;9.57;;
21337;SDS011;72379;50.880;4.350;2024-01-30T10:17:53;22.70;;;10.00;;
21337;SDS011;72379;50.880;4.350;2024-01-30T10:20:19;23.47;;;10.20;;
21337;SDS011;72379;50.880;4.350;2024-01-30T10:22:47;20.00;;;10.33;;
21337;SDS011;72379;50.880;4.350;2024-01-30T10:25:14;24.40;;;10.73;;
21337;SDS011;72379;50.880;4.350;2024-01-30T10:27:40;27.50;;;10.47;;
21337;SDS011;72379;50.880;4.350;2024-01-30T10:30:06;21.70;;;11.10;;
21337;SDS011;72379;50.880;4.350;2024-01-30T10:32:33;22.43;;;11.10;;
21337;SDS011;72379;50.880;4.350;2024-01-30T10:34:58;22.03;;;10.77;;
21337;SDS011;72379;50.880;4.350;2024-01-30T10:37:25;19.43;;;9.53;;
21337;SDS011;72379;50.880;4.350;2024-01-30T10:39:52;21.07;;;8.93;;
21337;SDS011;72379;50.880;4.350;2024-01-30T10:42:20;17.00;;;9.77;;
21337;SDS011;72379;50.880;4.350;2024-01-30T10:45:06;17.63;;;8.07;;
21337;SDS011;72379;50.880;4.350;2024-01-30T10:47:34;18.03;;;7.33;;
21337;SDS011;72379;50.880;4.350;2024-01-30T10:50:03;19.83;;;8.17;;
21337;SDS011;72379;50.880;4.350;2024-01-30T10:52:30;19.73;;;7.83;;
21337;SDS011;72379;50.880;4.350;2024-01-30T10:54:57;15.73;;;7.57;;
21337;SDS011;72379;50.880;4.350;2024-01-30T10:57:24;19.10;;;8.20;;
21337;SDS011;72379;50.880;4.350;2024-01-30T10:59:52;11.80;;;6.10;;
21337;SDS011;72379;50.880;4.350;2024-01-30T11:02:20;16.07;;;6.67;;
21337;SDS011;72379;50.880;4.350;2024-01-30T11:04:47;15.43;;;6.40;;
21337;SDS011;72379;50.880;4.350;2024-01-30T11:07:16;9.50;;;4.00;;
21337;SDS011;72379;50.880;4.350;2024-01-30T11:09:52;8.03;;;3.07;;
21337;SDS011;72379;50.880;4.350;2024-01-30T11:12:40;4.13;;;2.10;;
21337;SDS011;72379;50.880;4.350;2024-01-30T11:20:12;9.20;;;1.70;;
21337;SDS011;72379;50.880;4.350;2024-01-30T11:22:42;6.80;;;1.90;;
21337;SDS011;72379;50.880;4.350;2024-01-30T11:25:13;2.87;;;1.20;;
21337;SDS011;72379;50.880;4.350;2024-01-30T11:27:41;3.87;;;1.30;;
21337;SDS011;72379;50.880;4.350;2024-01-30T11:30:07;5.47;;;1.40;;
21337;SDS011;72379;50.880;4.350;2024-01-30T11:32:34;4.90;;;1.23;;
21337;SDS011;72379;50.880;4.350;2024-01-30T11:34:59;5.27;;;1.40;;
21337;SDS011;72379;50.880;4.350;2024-01-30T11:37:25;2.63;;;1.17;;
21337;SDS011;72379;50.880;4.350;2024-01-30T11:39:53;5.17;;;1.10;;
21337;SDS011;72379;50.880;4.350;2024-01-30T11:42:19;4.60;;;1.10;;
21337;SDS011;72379;50.880;4.350;2024-01-30T11:44:47;11.03;;;1.47;;
21337;SDS011;72379;50.880;4.350;2024-01-30T11:47:13;8.43;;;1.40;;
21337;SDS011;72379;50.880;4.350;2024-01-30T11:49:39;6.67;;;1.23;;
21337;SDS011;72379;50.880;4.350;2024-01-30T11:52:05;4.53;;;1.33;;
21337;SDS011;72379;50.880;4.350;2024-01-30T11:54:31;3.67;;;1.10;;
21337;SDS011;72379;50.880;4.350;2024-01-30T11:56:57;5.60;;;1.20;;
21337;SDS011;72379;50.880;4.350;2024-01-30T11:59:24;3.97;;;1.10;;
21337;SDS011;72379;50.880;4.350;2024-01-30T12:01:51;5.43;;;1.00;;
21337;SDS011;72379;50.880;4.350;2024-01-30T12:04:17;7.77;;;1.40;;
21337;SDS011;72379;50.880;4.350;2024-01-30T12:06:43;2.30;;;1.70;;
21337;SDS011;72379;50.880;4.350;2024-01-30T12:09:09;5.93;;;1.20;;
21337;SDS011;72379;50.880;4.350;2024-01-30T12:11:47;4.73;;;1.80;;
21337;SDS011;72379;50.880;4.350;2024-01-30T12:14:15;8.50;;;2.07;;
21337;SDS011;72379;50.880;4.350;2024-01-30T12:16:42;3.03;;;1.47;;
21337;SDS011;72379;50.880;4.350;2024-01-30T12:19:08;4.97;;;1.40;;
21337;SDS011;72379;50.880;4.350;2024-01-30T12:21:34;5.67;;;1.40;;
21337;SDS011;72379;50.880;4.350;2024-01-30T12:24:01;4.43;;;1.37;;
21337;SDS011;72379;50.880;4.350;2024-01-30T12:26:26;2.70;;;1.30;;
21337;SDS011;72379;50.880;4.350;2024-01-30T12:28:56;7.10;;;1.17;;
21337;SDS011;72379;50.880;4.350;2024-01-30T12:31:26;9.73;;;1.40;;
21337;SDS011;72379;50.880;4.350;2024-01-30T12:33:53;2.60;;;1.13;;
21337;SDS011;72379;50.880;4.350;2024-01-30T12:36:19;4.77;;;1.33;;
21337;SDS011;72379;50.880;4.350;2024-01-30T12:38:47;6.03;;;1.23;;
21337;SDS011;72379;50.880;4.350;2024-01-30T12:41:12;6.80;;;1.20;;
21337;SDS011;72379;50.880;4.350;2024-01-30T12:43:38;7.23;;;1.20;;
21337;SDS011;72379;50.880;4.350;2024-01-30T12:46:04;8.80;;;1.63;;
21337;SDS011;72379;50.880;4.350;2024-01-30T12:48:30;3.27;;;1.30;;
21337;SDS011;72379;50.880;4.350;2024-01-30T12:50:56;3.97;;;1.47;;
21337;SDS011;72379;50.880;4.350;2024-01-30T12:53:22;3.60;;;1.20;;
21337;SDS011;72379;50.880;4.350;2024-01-30T12:55:48;6.43;;;1.10;;
21337;SDS011;72379;50.880;4.350;2024-01-30T12:58:19;4.13;;;1.43;;
21337;SDS011;72379;50.880;4.350;2024-01-30T13:00:45;4.40;;;1.20;;
21337;SDS011;72379;50.880;4.350;2024-01-30T13:03:12;4.43;;;1.23;;
21337;SDS011;72379;50.880;4.350;2024-01-30T13:05:37;5.07;;;1.10;;
21337;SDS011;72379;50.880;4.350;2024-01-30T13:08:04;5.50;;;1.17;;
21337;SDS011;72379;50.880;4.350;2024-01-30T13:10:29;3.70;;;1.43;;
21337;SDS011;72379;50.880;4.350;2024-01-30T13:12:55;6.10;;;1.47;;
21337;SDS011;72379;50.880;4.350;2024-01-30T13:15:21;6.43;;;0.87;;
21337;SDS011;72379;50.880;4.350;2024-01-30T13:17:48;7.80;;;1.23;;
21337;SDS011;72379;50.880;4.350;2024-01-30T13:20:14;5.27;;;1.40;;
21337;SDS011;72379;50.880;4.350;2024-01-30T13:22:45;8.70;;;1.73;;
21337;SDS011;72379;50.880;4.350;2024-01-30T13:25:11;4.03;;;1.30;;
21337;SDS011;72379;50.880;4.350;2024-01-30T13:27:37;8.37;;;1.40;;
21337;SDS011;72379;50.880;4.350;2024-01-30T13:30:03;5.53;;;1.23;;
21337;SDS011;72379;50.880;4.350;2024-01-30T13:32:29;4.33;;;1.00;;
21337;SDS011;72379;50.880;4.350;2024-01-30T13:34:55;9.77;;;1.53;;
21337;SDS011;72379;50.880;4.350;2024-01-30T13:37:21;7.77;;;2.07;;
21337;SDS011;72379;50.880;4.350;2024-01-30T13:39:48;7.53;;;2.07;;
21337;SDS011;72379;50.880;4.350;2024-01-30T13:42:14;4.03;;;1.20;;
21337;SDS011;72379;50.880;4.350;2024-01-30T13:44:39;9.87;;;1.30;;
21337;SDS011;72379;50.880;4.350;2024-01-30T13:47:05;8.43;;;1.97;;
21337;SDS011;72379;50.880;4.350;2024-01-30T13:49:31;5.27;;;1.77;;
21337;SDS011;72379;50.880;4.350;2024-01-30T13:51:57;8.10;;;2.00;;
21337;SDS011;72379;50.880;4.350;2024-01-30T13:54:24;5.33;;;1.90;;
21337;SDS011;72379;50.880;4.350;2024-01-30T13:56:49;6.47;;;1.70;;
21337;SDS011;72379;50.880;4.350;2024-01-30T13:59:15;6.33;;;1.50;;
21337;SDS011;72379;50.880;4.350;2024-01-30T14:01:47;7.33;;;1.40;;
21337;SDS011;72379;50.880;4.350;2024-01-30T14:04:13;3.13;;;1.30;;
21337;SDS011;72379;50.880;4.350;2024-01-30T14:06:39;5.30;;;1.40;;
21337;SDS011;72379;50.880;4.350;2024-01-30T14:09:05;6.87;;;1.40;;
21337;SDS011;72379;50.880;4.350;2024-01-30T14:11:32;4.53;;;1.40;;
21337;SDS011;72379;50.880;4.350;2024-01-30T14:13:58;4.23;;;1.40;;
21337;SDS011;72379;50.880;4.350;2024-01-30T14:16:24;4.57;;;1.40;;
21337;SDS011;72379;50.880;4.350;2024-01-30T14:18:50;5.67;;;1.50;;
21337;SDS011;72379;50.880;4.350;2024-01-30T14:21:16;5.13;;;1.40;;
21337;SDS011;72379;50.880;4.350;2024-01-30T14:23:42;3.50;;;1.10;;
21337;SDS011;72379;50.880;4.350;2024-01-30T14:26:08;6.27;;;1.23;;
21337;SDS011;72379;50.880;4.350;2024-01-30T14:28:33;7.40;;;2.07;;
21337;SDS011;72379;50.880;4.350;2024-01-30T14:30:59;7.67;;;1.90;;
21337;SDS011;72379;50.880;4.350;2024-01-30T14:33:25;8.10;;;1.53;;
21337;SDS011;72379;50.880;4.350;2024-01-30T14:35:52;5.70;;;1.70;;
21337;SDS011;72379;50.880;4.350;2024-01-30T14:38:18;3.63;;;1.00;;
21337;SDS011;72379;50.880;4.350;2024-01-30T14:40:44;4.30;;;1.07;;